EW0908 Weather Reports


Display with metric or nautical units.
time (UTC)temp
F
wind
direction
speed
MPH
gust
MPH
rain 1hr
in
rain 24hr
in
rain mn
in
humidity
%
barometer
mb
20180224140357 55 331 10.0 17.0 0.00 0.54 0.54 76 1004.1
20180224135356 55 354 13.0 17.0 0.00 0.54 0.54 76 1004.1
20180224134855 55 333 9.0 15.0 0.00 0.54 0.54 75 1004.1
20180224134355 56 306 10.0 17.0 0.00 0.54 0.54 71 1004.1
20180224133854 56 337 10.0 17.0 0.00 0.54 0.54 72 1004.1
20180224133353 56 340 10.0 17.0 0.00 0.54 0.54 72 1004.1
20180224132852 55 288 9.0 15.0 0.00 0.54 0.54 72 1004.1
20180224132352 55 298 7.0 17.0 0.00 0.54 0.54 72 1004.1
20180224131851 55 299 12.0 21.0 0.00 0.54 0.54 72 1004.1
20180224131350 55 309 12.0 17.0 0.00 0.54 0.54 71 1004.1
20180224130850 55 285 10.0 15.0 0.00 0.54 0.54 73 1004.1
20180224130349 55 310 6.0 13.0 0.00 0.54 0.54 74 1004.1
20180224125848 55 303 7.0 15.0 0.00 0.54 0.54 73 1004.1
20180224125347 55 286 10.0 15.0 0.00 0.54 0.54 72 1004.1
20180224124847 55 292 6.0 13.0 0.00 0.54 0.54 73 1004.3
20180224124346 55 319 9.0 15.0 0.00 0.54 0.54 72 1004.4
20180224123845 55 317 7.0 15.0 0.00 0.54 0.54 73 1004.4
20180224123345 55 309 10.0 17.0 0.00 0.54 0.54 72 1004.1
20180224122844 55 315 13.0 23.0 0.00 0.54 0.54 69 1004.1
20180224122343 55 343 13.0 21.0 0.00 0.54 0.54 68 1004.1
20180224121843 55 325 10.0 15.0 0.00 0.54 0.54 68 1004.1
20180224121341 55 347 10.0 21.0 0.00 0.54 0.54 70 1004.1
20180224120841 55 353 10.0 17.0 0.00 0.54 0.54 76 1004.1
20180224120340 55 346 11.0 21.0 0.00 0.54 0.54 74 1004.1
20180224115840 55 352 13.0 17.0 0.00 0.54 0.54 76 1004.1
20180224115339 55 329 9.0 21.0 0.00 0.54 0.54 74 1004.6
20180224114839 55 348 14.0 23.0 0.00 0.54 0.54 76 1004.1
20180224114337 55 346 14.0 28.0 0.00 0.54 0.54 78 1004.1
20180224113837 55 348 16.0 25.0 0.00 0.54 0.54 79 1004.1
20180224113336 55 345 19.0 25.0 0.00 0.54 0.54 80 1004.1
20180224112836 56 354 18.0 25.0 0.00 0.54 0.54 80 1004.4
20180224112335 56 359 18.0 28.0 0.00 0.54 0.54 78 1004.7
20180224111834 56 16 10.0 17.0 0.00 0.54 0.54 73 1004.7
20180224111333 56 329 9.0 17.0 0.00 0.54 0.54 72 1004.7
20180224110833 56 292 12.0 23.0 0.00 0.54 0.54 72 1004.7
20180224110332 56 330 12.0 23.0 0.00 0.54 0.54 72 1004.7
20180224105831 56 351 10.0 21.0 0.00 0.54 0.54 74 1004.7
20180224105330 56 312 10.0 21.0 0.00 0.54 0.54 73 1004.7
20180224104832 56 323 10.0 15.0 0.00 0.54 0.54 75 1005.1
20180224104329 56 282 9.0 17.0 0.00 0.54 0.54 74 1005.1
20180224103829 55 290 16.0 25.0 0.00 0.54 0.54 72 1005.1
20180224103328 55 312 17.0 25.0 0.00 0.54 0.54 75 1005.1
20180224102827 55 296 13.0 21.0 0.00 0.54 0.54 76 1005.1
20180224102327 55 288 13.0 21.0 0.00 0.54 0.54 74 1005.1
20180224101826 55 328 11.0 21.0 0.00 0.54 0.54 76 1005.4
20180224101326 55 345 11.0 17.0 0.00 0.54 0.54 75 1005.4
20180224100824 55 319 10.0 17.0 0.00 0.54 0.54 75 1005.4
20180224100323 55 300 9.0 17.0 0.00 0.54 0.54 74 1005.4
20180224095822 55 329 12.0 17.0 0.00 0.54 0.54 72 1005.4
20180224095322 55 304 10.0 15.0 0.00 0.54 0.54 74 1005.7
20180224094821 54 322 7.0 13.0 0.00 0.54 0.54 74 1005.4
20180224094320 54 318 9.0 15.0 0.00 0.54 0.54 76 1005.8
20180224093820 54 285 9.0 15.0 0.00 0.54 0.54 79 1005.8
20180224093319 54 302 7.0 13.0 0.00 0.54 0.54 80 1005.8
20180224092818 54 288 10.0 15.0 0.00 0.54 0.54 81 1005.8
20180224092318 54 295 10.0 17.0 0.00 0.54 0.54 80 1005.8
20180224091317 54 296 5.0 10.0 0.00 0.54 0.54 83 1005.8
20180224090815 54 308 7.0 13.0 0.00 0.54 0.54 83 1005.8
20180224090316 54 357 2.0 13.0 0.00 0.54 0.54 82 1005.8
20180224085814 53 320 2.0 13.0 0.00 0.54 0.54 82 1005.8
20180224085314 53 352 9.0 13.0 0.00 0.54 0.54 83 1005.8
20180224084813 53 316 12.0 17.0 0.00 0.54 0.54 83 1005.8
20180224084312 52 289 10.0 17.0 0.00 0.54 0.54 84 1005.8
20180224083812 52 301 10.0 17.0 0.00 0.54 0.54 85 1005.8
20180224082810 52 307 9.0 17.0 0.00 0.54 0.54 85 1006.1
20180224082310 52 3 11.0 21.0 0.00 0.54 0.54 85 1006.1
20180224081809 52 0 12.0 17.0 0.01 0.54 0.54 88 1006.1
20180224081308 51 317 13.0 21.0 0.02 0.54 0.54 87 1006.1
20180224080807 51 325 15.0 25.0 0.04 0.54 0.54 85 1006.1
20180224080306 50 348 14.0 21.0 0.06 0.54 0.54 88 1006.3
20180224075805 50 309 9.0 21.0 0.08 0.54 0.54 88 1006.4
20180224075305 50 324 11.0 23.0 0.10 0.54 0.54 88 1006.4
20180224074804 49 290 16.0 25.0 0.14 0.54 0.54 89 1006.4
20180224073905 49 321 16.0 23.0 0.21 0.54 0.54 90 1006.8
20180224073405 49 317 13.0 25.0 0.24 0.54 0.54 90 1006.8
20180224072904 49 319 13.0 28.0 0.27 0.54 0.54 92 1006.9
20180224072404 49 305 13.0 23.0 0.29 0.54 0.54 94 1006.8
20180224071902 49 310 15.0 23.0 0.31 0.53 0.53 95 1007.1
20180224071402 50 323 13.0 25.0 0.31 0.52 0.52 95 1007.1
20180224070901 50 322 18.0 28.0 0.31 0.51 0.51 95 1007.5
20180224070401 50 301 16.0 28.0 0.29 0.48 0.48 95 1007.5
20180224065900 50 310 13.0 17.0 0.27 0.46 0.46 96 1007.5
20180224065359 50 303 8.0 15.0 0.26 0.44 0.44 96 1007.5
20180224064858 50 335 3.0 8.0 0.23 0.41 0.41 96 1007.5
20180224064357 50 244 5.0 15.0 0.22 0.37 0.37 95 1007.5
20180224063859 50 247 6.0 13.0 0.19 0.33 0.33 97 1007.5
20180224063358 50 156 3.0 10.0 0.16 0.30 0.30 97 1007.1
20180224062856 50 159 5.0 8.0 0.14 0.27 0.27 97 1006.8
20180224062355 50 273 2.0 10.0 0.12 0.25 0.25 97 1006.9
20180224061854 50 298 7.0 13.0 0.09 0.22 0.22 97 1007.0
20180224061353 50 330 8.0 17.0 0.08 0.21 0.21 96 1006.8
20180224060852 50 315 9.0 15.0 0.07 0.20 0.20 96 1006.7
20180224060352 50 302 8.0 15.0 0.06 0.19 0.19 95 1006.8
20180224055851 50 357 7.0 13.0 0.07 0.19 0.19 95 1006.5
20180224055351 50 358 5.0 10.0 0.06 0.18 0.18 94 1006.4
20180224054850 50 339 3.0 8.0 0.06 0.18 0.18 95 1006.4
20180224054349 50 293 3.0 5.0 0.04 0.15 0.15 95 1006.8
20180224053849 50 276 3.0 5.0 0.06 0.14 0.14 95 1006.4
20180224053348 50 278 2.0 5.0 0.07 0.14 0.14 96 1006.4
20180224052847 50 288 3.0 5.0 0.07 0.13 0.13 96 1006.4
20180224052346 50 338 0.0 2.0 0.09 0.13 0.13 96 1006.4
20180224051845 50 333 1.0 2.0 0.11 0.13 0.13 96 1006.3
20180224051347 50 335 1.0 2.0 0.12 0.13 0.13 95 1006.4
20180224050846 51 5 0.0 2.0 0.13 0.13 0.13 95 1006.4
20180224050344 51 309 0.0 2.0 0.13 0.13 0.13 95 1006.7
20180224045843 51 291 0.0 2.0 0.12 0.12 0.12 95 1006.8
20180224045342 51 5 0.0 0.0 0.12 0.12 0.12 95 1006.8
20180224044841 51 344 0.0 2.0 0.12 0.12 0.12 95 1006.8
20180224044340 51 37 1.0 2.0 0.11 0.11 0.11 94 1007.0
20180224043841 51 339 0.0 2.0 0.08 0.08 0.08 93 1007.1
20180224043340 51 302 0.0 0.0 0.07 0.07 0.07 93 1007.1
20180224042839 51 286 1.0 2.0 0.06 0.06 0.06 93 1007.1
20180224042338 51 342 0.0 2.0 0.04 0.04 0.04 92 1007.1
20180224041837 51 212 0.0 2.0 0.02 0.02 0.02 92 1007.1
20180224041336 51 146 1.0 2.0 0.01 0.01 0.01 91 1007.5
20180224040836 51 163 0.0 0.0 0.00 0.00 0.00 90 1007.1
20180224040335 51 108 0.0 2.0 0.00 0.00 0.00 90 1007.1
20180224035834 51 113 2.0 2.0 0.00 0.00 0.00 89 1007.1
20180224035333 51 132 1.0 2.0 0.00 0.00 0.00 89 1007.5
20180224034833 51 129 0.0 2.0 0.00 0.00 0.00 89 1007.5
20180224034332 51 135 0.0 5.0 0.00 0.00 0.00 88 1007.5
20180224033832 51 139 1.0 5.0 0.00 0.00 0.00 88 1007.5
20180224033330 51 176 0.0 2.0 0.00 0.00 0.00 88 1007.5
20180224032830 51 181 1.0 5.0 0.00 0.00 0.00 88 1007.5
20180224032329 51 156 2.0 5.0 0.00 0.00 0.00 88 1007.5
20180224031828 51 173 2.0 5.0 0.00 0.00 0.00 88 1007.5
20180224031328 51 161 1.0 5.0 0.00 0.00 0.00 88 1007.5
20180224030827 51 136 2.0 5.0 0.00 0.00 0.00 87 1007.5
20180224030326 51 203 0.0 2.0 0.00 0.00 0.00 88 1007.3
20180224025826 51 174 0.0 0.0 0.00 0.00 0.00 88 1007.5
20180224025325 51 190 0.0 2.0 0.00 0.00 0.00 88 1007.5
20180224024824 51 153 0.0 2.0 0.00 0.00 0.00 88 1007.5
20180224024324 51 188 0.0 2.0 0.00 0.00 0.00 88 1007.5
20180224023823 51 168 0.0 2.0 0.00 0.00 0.00 87 1007.5
20180224023323 51 90 0.0 2.0 0.00 0.00 0.00 87 1007.5
20180224022822 51 112 1.0 2.0 0.00 0.00 0.00 88 1007.5
20180224022321 51 169 0.0 2.0 0.00 0.00 0.00 88 1007.8
20180224021820 51 172 1.0 2.0 0.00 0.00 0.00 88 1007.8
20180224021319 51 342 0.0 0.0 0.00 0.00 0.00 88 1007.8
20180224020820 51 92 0.0 2.0 0.00 0.00 0.00 88 1007.8
20180224020318 51 137 0.0 2.0 0.00 0.00 0.00 89 1007.8
20180224015817 51 146 0.0 5.0 0.00 0.00 0.00 89 1007.8
20180224015316 51 105 1.0 5.0 0.00 0.00 0.00 89 1007.8
20180224014815 51 334 0.0 0.0 0.00 0.00 0.00 89 1007.8
20180224014315 51 335 0.0 0.0 0.00 0.00 0.00 89 1008.0
20180224013814 51 17 0.0 0.0 0.00 0.00 0.00 88 1008.1
20180224013314 51 168 0.0 0.0 0.00 0.00 0.00 88 1008.1
20180224012813 51 191 0.0 0.0 0.00 0.00 0.00 88 1008.1
20180224012312 51 161 0.0 0.0 0.00 0.00 0.00 88 1008.1
20180224011811 51 154 0.0 0.0 0.00 0.00 0.00 87 1008.5
20180224011310 51 155 0.0 2.0 0.00 0.00 0.00 88 1008.5
20180224010811 51 167 1.0 5.0 0.00 0.00 0.00 87 1008.5
20180224010309 51 153 4.0 8.0 0.00 0.00 0.00 87 1008.8
20180224005808 51 180 3.0 5.0 0.00 0.00 0.00 88 1008.8
20180224005308 51 182 2.0 5.0 0.00 0.00 0.00 88 1008.8
20180224004807 51 158 2.0 5.0 0.00 0.00 0.00 88 1008.8
20180224004306 51 159 1.0 2.0 0.00 0.00 0.00 88 1009.1
20180224003806 51 184 1.0 5.0 0.00 0.00 0.00 88 1009.1
20180224003305 51 174 1.0 2.0 0.00 0.00 0.00 88 1009.1
20180224002804 51 143 2.0 8.0 0.00 0.00 0.00 88 1009.1
20180224001853 51 168 2.0 2.0 0.00 0.00 0.00 88 1009.1
20180224001352 51 181 1.0 5.0 0.00 0.00 0.00 87 1009.1
20180224000851 51 153 0.0 2.0 0.00 0.00 0.00 87 1009.1
20180224000350 51 170 1.0 2.0 0.00 0.00 0.00 86 1009.5
20180223235850 51 180 1.0 5.0 0.00 0.00 0.00 86 1009.8
20180223235348 51 151 3.0 5.0 0.00 0.00 0.00 85 1009.8
20180223234848 51 281 0.0 2.0 0.00 0.00 0.00 85 1009.5
20180223234348 51 258 0.0 2.0 0.00 0.00 0.00 85 1009.5
20180223233847 51 282 0.0 0.0 0.00 0.00 0.00 84 1009.5
20180223233346 52 74 0.0 0.0 0.00 0.00 0.00 83 1009.5
20180223232845 52 80 1.0 2.0 0.00 0.00 0.00 83 1009.5
20180223232345 52 1 0.0 2.0 0.00 0.00 0.00 84 1009.7
20180223231844 52 55 1.0 2.0 0.00 0.00 0.00 85 1009.8
20180223231343 52 183 0.0 2.0 0.00 0.00 0.00 88 1009.8
20180223230843 52 143 0.0 0.0 0.00 0.00 0.00 87 1009.8
20180223230342 52 192 0.0 2.0 0.00 0.00 0.00 87 1009.8
20180223225841 52 166 1.0 2.0 0.00 0.00 0.00 87 1009.8
20180223225340 52 136 0.0 2.0 0.00 0.00 0.00 86 1010.0
20180223224839 53 177 1.0 5.0 0.00 0.00 0.00 86 1010.2
20180223224339 53 225 2.0 5.0 0.00 0.00 0.00 86 1010.2
20180223223838 53 233 1.0 2.0 0.00 0.00 0.00 86 1010.2
20180223223338 53 214 2.0 2.0 0.00 0.00 0.00 86 1010.2
20180223222837 53 206 0.0 2.0 0.00 0.00 0.00 86 1010.2
20180223222336 53 157 0.0 2.0 0.00 0.00 0.00 85 1010.2
20180223221835 53 222 0.0 0.0 0.00 0.00 0.00 84 1010.2
20180223221335 53 125 0.0 0.0 0.00 0.00 0.00 83 1010.2
20180223220845 53 142 1.0 2.0 0.00 0.00 0.00 82 1010.5
20180223220333 53 155 1.0 2.0 0.00 0.00 0.00 82 1010.8
20180223215832 53 173 0.0 2.0 0.00 0.00 0.00 82 1010.8
20180223215332 53 184 0.0 0.0 0.00 0.00 0.00 82 1010.5
20180223214831 54 176 1.0 5.0 0.00 0.00 0.00 81 1010.6
20180223214330 54 176 3.0 5.0 0.00 0.00 0.00 81 1010.7
20180223213829 54 108 2.0 5.0 0.00 0.00 0.00 81 1010.5
20180223213329 54 107 2.0 5.0 0.00 0.00 0.00 80 1010.5
20180223212828 54 100 3.0 8.0 0.00 0.00 0.00 80 1010.5
20180223212327 54 101 2.0 10.0 0.00 0.00 0.00 80 1010.5
20180223211826 54 94 1.0 5.0 0.00 0.00 0.00 79 1010.5
20180223211326 54 68 2.0 5.0 0.00 0.00 0.00 78 1010.8
20180223210826 55 69 0.0 2.0 0.00 0.00 0.00 78 1010.8
20180223210324 55 58 1.0 5.0 0.00 0.00 0.00 78 1011.2
20180223205824 55 69 1.0 2.0 0.00 0.00 0.00 78 1011.2
20180223205323 55 16 2.0 5.0 0.00 0.00 0.00 78 1011.2
20180223204823 55 68 2.0 5.0 0.00 0.00 0.00 77 1011.2
20180223204321 55 77 1.0 2.0 0.00 0.00 0.00 76 1011.2
20180223203821 54 13 1.0 5.0 0.00 0.00 0.00 77 1011.0
20180223203320 54 84 1.0 2.0 0.00 0.00 0.00 77 1011.1
20180223202820 54 109 1.0 2.0 0.00 0.00 0.00 77 1011.2
20180223202319 54 103 0.0 2.0 0.00 0.00 0.00 78 1011.2
20180223201819 54 175 0.0 2.0 0.00 0.00 0.00 77 1011.2
20180223201318 54 148 1.0 5.0 0.00 0.00 0.00 77 1011.2
20180223200817 54 112 0.0 2.0 0.00 0.00 0.00 77 1011.0
20180223200316 54 187 0.0 2.0 0.00 0.00 0.00 77 1011.2
20180223195816 54 179 1.0 5.0 0.00 0.00 0.00 77 1011.2
20180223195315 54 86 1.0 5.0 0.00 0.00 0.00 77 1010.8
20180223194814 54 143 2.0 5.0 0.00 0.00 0.00 77 1011.0
20180223194313 54 104 0.0 2.0 0.00 0.00 0.00 78 1010.8
20180223193812 54 48 0.0 0.0 0.00 0.00 0.00 78 1011.1
20180223193312 54 57 1.0 8.0 0.00 0.00 0.00 78 1011.2
20180223192811 54 5 1.0 8.0 0.00 0.00 0.00 78 1011.2
20180223192311 54 77 2.0 5.0 0.00 0.00 0.00 78 1011.2
20180223191810 54 21 2.0 5.0 0.00 0.00 0.00 78 1011.2
20180223191309 54 4 3.0 8.0 0.00 0.00 0.00 78 1011.2
20180223190808 54 29 5.0 10.0 0.00 0.00 0.00 78 1011.2
20180223190307 54 25 4.0 8.0 0.00 0.00 0.00 78 1011.2
20180223185807 54 41 6.0 10.0 0.00 0.00 0.00 78 1011.2
20180223185306 54 59 5.0 10.0 0.00 0.00 0.00 78 1011.2
20180223184805 54 35 1.0 5.0 0.00 0.00 0.00 79 1011.2
20180223184305 54 25 2.0 5.0 0.00 0.00 0.00 79 1010.8
20180223183913 54 48 6.0 13.0 0.00 0.00 0.00 79 1011.1
20180223183411 54 30 7.0 15.0 0.00 0.00 0.00 79 1010.9
20180223182911 54 35 5.0 10.0 0.00 0.00 0.00 80 1010.8
20180223182410 54 88 4.0 13.0 0.00 0.00 0.00 80 1010.8
20180223181910 54 35 9.0 15.0 0.00 0.00 0.00 80 1010.8
20180223181408 54 16 8.0 21.0 0.00 0.00 0.00 80 1010.8
20180223180908 54 46 10.0 21.0 0.00 0.00 0.00 81 1010.8
20180223180407 54 25 10.0 15.0 0.00 0.00 0.00 80 1010.5
20180223175907 54 33 10.0 17.0 0.00 0.00 0.00 81 1010.5
20180223175406 54 13 6.0 15.0 0.00 0.00 0.00 81 1010.5
20180223174905 55 341 7.0 17.0 0.00 0.00 0.00 81 1010.5
20180223174404 55 15 8.0 17.0 0.00 0.00 0.00 81 1010.5
20180223173904 55 23 7.0 15.0 0.00 0.00 0.00 81 1010.5
20180223173402 55 358 7.0 15.0 0.00 0.00 0.00 81 1010.5
20180223172902 55 16 8.0 15.0 0.00 0.00 0.00 80 1010.5
20180223172402 55 55 7.0 13.0 0.00 0.00 0.00 80 1010.3
20180223171900 55 38 10.0 17.0 0.00 0.00 0.00 80 1010.2
20180223171400 55 15 7.0 15.0 0.00 0.00 0.00 80 1010.2
20180223170859 55 20 7.0 10.0 0.00 0.00 0.00 80 1010.2
20180223170359 56 40 10.0 17.0 0.00 0.00 0.00 79 1010.2
20180223165859 56 30 8.0 15.0 0.00 0.00 0.00 78 1010.2
20180223165357 56 41 10.0 21.0 0.00 0.00 0.00 77 1010.2
20180223164857 56 27 9.0 17.0 0.00 0.00 0.00 77 1010.2
20180223164356 56 32 8.0 13.0 0.00 0.00 0.00 77 1010.2
20180223163855 56 15 6.0 15.0 0.00 0.00 0.00 77 1010.2
20180223163354 56 32 10.0 17.0 0.00 0.00 0.00 76 1009.9
20180223162854 56 19 10.0 15.0 0.00 0.00 0.00 76 1009.8
20180223162352 57 77 5.0 17.0 0.00 0.00 0.00 76 1009.8
20180223161852 57 66 6.0 13.0 0.00 0.00 0.00 75 1009.8
20180223161352 57 48 6.0 13.0 0.00 0.00 0.00 75 1009.8
20180223160850 57 36 10.0 17.0 0.00 0.00 0.00 74 1009.9
20180223160350 57 36 4.0 13.0 0.00 0.00 0.00 75 1010.2
20180223155849 57 78 7.0 15.0 0.00 0.00 0.00 75 1010.2
20180223155349 57 59 6.0 15.0 0.00 0.00 0.00 75 1010.2
20180223154848 57 28 7.0 13.0 0.00 0.00 0.00 74 1010.2
20180223154347 57 79 5.0 15.0 0.00 0.00 0.00 75 1010.2
20180223153846 58 48 7.0 13.0 0.00 0.00 0.00 75 1010.2
20180223153346 58 13 6.0 13.0 0.00 0.00 0.00 74 1010.2
20180223152845 58 24 7.0 15.0 0.00 0.00 0.00 76 1010.2
20180223152344 58 30 7.0 15.0 0.00 0.00 0.00 75 1010.2
20180223151844 58 9 7.0 13.0 0.00 0.00 0.00 74 1010.2
20180223151343 58 62 8.0 15.0 0.00 0.00 0.00 73 1010.2
20180223150842 59 32 6.0 10.0 0.00 0.00 0.00 72 1010.2
20180223150342 59 70 5.0 13.0 0.00 0.00 0.00 72 1010.2
20180223145841 59 25 2.0 8.0 0.00 0.00 0.00 71 1010.2
20180223145340 59 319 3.0 10.0 0.00 0.00 0.00 72 1010.2
20180223144839 59 108 3.0 8.0 0.00 0.00 0.00 76 1010.2
20180223144338 59 52 3.0 10.0 0.00 0.00 0.00 69 1010.2
20180223143838 60 108 3.0 8.0 0.00 0.00 0.00 68 1010.2
20180223143337 60 52 1.0 5.0 0.00 0.00 0.00 69 1010.2
20180223142837 60 42 2.0 5.0 0.00 0.00 0.00 69 1009.8
20180223142336 60 311 2.0 5.0 0.00 0.00 0.00 71 1009.8
20180223141835 60 4 2.0 5.0 0.00 0.00 0.00 73 1010.0
20180223141334 60 12 1.0 8.0 0.00 0.00 0.00 74 1010.2
20180223140834 61 325 2.0 5.0 0.00 0.00 0.00 73 1010.2